Time;durP1;ratioP1;P1;durP2;ratioP2;P2;SDS_P1;SDS_P2;PMS_P1;PMS_P2;Temp;Humidity;BMP_temperature;BMP_pressure;BME280_temperature;BME280_humidity;BME280_pressure;Samples;Min_cycle;Max_cycle;Signal;HPM_P1;HPM_P2
2023/08/20 00:02:02;;;;;;;5.65;2.83;;;14.10;99.90;;;;;;4991118;28;20115;-78
2023/08/20 00:04:28;;;;;;;6.07;2.30;;;14.10;99.90;;;;;;4984511;28;20070;-78
2023/08/20 00:06:54;;;;;;;5.90;2.45;;;14.00;99.90;;;;;;4959969;28;20459;-78
2023/08/20 00:09:20;;;;;;;7.35;2.75;;;14.00;99.90;;;;;;5001344;28;20054;-79
2023/08/20 00:11:46;;;;;;;9.25;2.15;;;14.00;99.90;;;;;;4980440;28;20042;-78
2023/08/20 00:14:16;;;;;;;3.53;1.23;;;14.00;99.90;;;;;;4999551;28;20086;-78
2023/08/20 00:16:42;;;;;;;4.75;1.70;;;13.90;99.90;;;;;;4984746;28;20053;-78
2023/08/20 00:19:09;;;;;;;2.33;1.45;;;13.90;99.90;;;;;;4983939;28;20053;-78
2023/08/20 00:21:35;;;;;;;3.35;1.77;;;13.90;99.90;;;;;;4993435;28;20043;-78
2023/08/20 00:24:01;;;;;;;4.60;1.90;;;13.90;99.90;;;;;;4986643;28;20038;-78
2023/08/20 00:26:27;;;;;;;4.82;1.90;;;13.90;99.90;;;;;;4987385;28;20113;-78
2023/08/20 00:28:53;;;;;;;2.95;1.60;;;13.80;99.90;;;;;;4984636;28;20887;-79
2023/08/20 00:31:19;;;;;;;5.78;2.17;;;13.80;99.90;;;;;;4986812;28;20108;-77
2023/08/20 00:33:44;;;;;;;5.85;2.38;;;13.70;99.90;;;;;;4983956;28;20490;-78
2023/08/20 00:36:10;;;;;;;3.53;2.40;;;13.70;99.90;;;;;;5008853;28;20053;-78
2023/08/20 00:38:36;;;;;;;5.05;2.38;;;13.70;99.90;;;;;;4968029;28;20050;-78
2023/08/20 00:41:01;;;;;;;6.97;2.55;;;13.70;99.90;;;;;;4981396;28;20041;-77
2023/08/20 00:43:27;;;;;;;7.00;2.53;;;13.80;99.90;;;;;;4999845;28;20424;-78
2023/08/20 00:45:53;;;;;;;3.95;2.35;;;13.70;99.90;;;;;;4985560;28;20092;-78
2023/08/20 00:48:19;;;;;;;8.20;2.97;;;13.70;99.90;;;;;;4985722;28;20050;-78
2023/08/20 00:50:45;;;;;;;6.30;2.88;;;13.70;99.90;;;;;;4996940;28;20034;-78
2023/08/20 00:53:13;;;;;;;4.28;2.72;;;13.60;99.90;;;;;;4984934;28;20050;-78
2023/08/20 00:55:39;;;;;;;4.90;2.20;;;13.60;99.90;;;;;;4966413;28;20043;-79
2023/08/20 00:58:05;;;;;;;5.68;2.70;;;13.60;99.90;;;;;;4982440;28;20556;-78
2023/08/20 01:00:31;;;;;;;5.50;2.55;;;13.60;99.90;;;;;;4983112;28;20030;-78
2023/08/20 01:02:57;;;;;;;4.82;2.95;;;13.60;99.90;;;;;;4966625;28;20062;-77
2023/08/20 01:05:23;;;;;;;9.70;2.95;;;13.60;99.90;;;;;;4998686;28;20077;-78
2023/08/20 01:08:26;;;;;;;5.50;2.72;;;13.60;99.90;;;;;;4968242;28;20057;-79
2023/08/20 01:11:08;;;;;;;9.35;2.95;;;13.60;99.90;;;;;;4992209;28;20112;-79
2023/08/20 01:13:33;;;;;;;6.03;2.90;;;13.60;99.90;;;;;;4980551;28;20759;-79
2023/08/20 01:15:59;;;;;;;7.60;2.75;;;13.60;99.90;;;;;;4967942;28;20134;-79
2023/08/20 01:18:25;;;;;;;6.93;2.88;;;13.60;99.90;;;;;;4982122;28;20155;-79
2023/08/20 01:20:58;;;;;;;6.75;2.72;;;13.60;99.90;;;;;;4967927;28;20162;-80
2023/08/20 01:23:39;;;;;;;8.07;3.50;;;13.60;99.90;;;;;;4983252;28;20624;-79
2023/08/20 01:26:43;;;;;;;7.00;3.60;;;13.60;99.90;;;;;;4989812;28;20046;-79
2023/08/20 01:29:11;;;;;;;7.10;3.20;;;13.60;99.90;;;;;;4986054;28;20058;-79
2023/08/20 01:31:37;;;;;;;8.98;3.60;;;13.50;99.90;;;;;;4988879;28;20352;-79
2023/08/20 01:34:03;;;;;;;8.35;3.55;;;13.50;99.90;;;;;;4983842;28;20560;-79
2023/08/20 01:36:29;;;;;;;8.93;3.70;;;13.50;99.90;;;;;;4967458;28;20042;-79
2023/08/20 01:38:54;;;;;;;5.65;3.45;;;13.50;99.90;;;;;;4991891;28;20128;-79
2023/08/20 01:41:20;;;;;;;5.18;2.83;;;13.50;99.90;;;;;;4984996;28;20126;-79
2023/08/20 01:43:46;;;;;;;8.48;2.90;;;13.50;99.90;;;;;;4969928;28;20057;-79
2023/08/20 01:46:12;;;;;;;6.65;2.90;;;13.50;99.90;;;;;;4981278;28;20408;-78
2023/08/20 01:48:38;;;;;;;7.10;2.85;;;13.40;99.90;;;;;;4980325;28;20042;-79
2023/08/20 01:51:04;;;;;;;6.30;2.60;;;13.40;99.90;;;;;;5001425;28;20042;-78
2023/08/20 01:53:29;;;;;;;5.35;3.40;;;13.40;99.90;;;;;;4986105;28;20057;-78
2023/08/20 01:55:55;;;;;;;5.93;2.90;;;13.40;99.90;;;;;;4968604;28;20074;-78
2023/08/20 01:58:21;;;;;;;8.02;3.35;;;13.50;99.90;;;;;;4984641;28;20042;-78
2023/08/20 02:00:49;;;;;;;6.32;3.35;;;13.40;99.90;;;;;;4971254;28;20042;-78
2023/08/20 02:03:15;;;;;;;7.55;3.63;;;13.40;99.90;;;;;;4984594;28;20035;-79
2023/08/20 02:05:41;;;;;;;8.35;3.78;;;13.50;99.90;;;;;;4984062;28;20038;-78
2023/08/20 02:08:06;;;;;;;6.47;4.00;;;13.40;99.90;;;;;;4982530;28;20049;-78
2023/08/20 02:10:32;;;;;;;5.78;3.75;;;13.40;99.90;;;;;;4983955;28;20045;-78
2023/08/20 02:12:58;;;;;;;5.82;3.33;;;13.40;99.90;;;;;;4986518;28;20136;-79
2023/08/20 02:15:23;;;;;;;7.07;3.40;;;13.40;99.90;;;;;;4970413;28;20413;-78
2023/08/20 02:17:52;;;;;;;8.55;3.90;;;13.40;99.90;;;;;;4984231;28;20481;-78
2023/08/20 02:20:18;;;;;;;9.60;4.43;;;13.40;99.90;;;;;;4984855;28;20042;-79
2023/08/20 02:22:44;;;;;;;11.30;5.15;;;13.40;99.90;;;;;;4983550;28;20065;-78
2023/08/20 02:25:09;;;;;;;11.00;4.65;;;13.50;99.90;;;;;;4983359;28;20046;-78
2023/08/20 02:27:35;;;;;;;7.72;3.95;;;13.40;99.90;;;;;;4983769;28;20070;-78
2023/08/20 02:30:01;;;;;;;19.27;5.15;;;13.50;99.90;;;;;;4984665;28;20065;-78
2023/08/20 02:32:26;;;;;;;8.98;4.70;;;13.50;99.90;;;;;;4979849;28;20050;-78
2023/08/20 02:34:53;;;;;;;11.38;6.22;;;13.60;99.90;;;;;;4969741;28;20041;-78
2023/08/20 02:37:19;;;;;;;11.20;5.28;;;13.50;99.90;;;;;;5001807;28;20042;-78
2023/08/20 02:39:44;;;;;;;12.73;6.13;;;13.60;99.90;;;;;;4985594;28;20057;-78
2023/08/20 02:42:10;;;;;;;9.98;5.78;;;13.60;99.90;;;;;;4992792;28;20033;-78
2023/08/20 02:44:36;;;;;;;12.00;6.03;;;13.60;99.90;;;;;;4967731;28;20520;-78
2023/08/20 02:47:02;;;;;;;15.57;5.68;;;13.60;99.90;;;;;;4991375;28;20088;-78
2023/08/20 02:49:27;;;;;;;14.40;6.43;;;13.70;99.90;;;;;;4989817;28;20062;-78
2023/08/20 02:51:53;;;;;;;10.43;5.60;;;13.70;99.90;;;;;;4978454;28;20130;-78
2023/08/20 02:54:19;;;;;;;8.60;5.00;;;13.60;99.90;;;;;;4987957;28;20096;-78
2023/08/20 02:56:44;;;;;;;6.75;4.00;;;13.60;99.90;;;;;;4982321;28;20038;-78
2023/08/20 02:59:10;;;;;;;5.97;2.70;;;13.70;99.90;;;;;;4983549;28;20034;-78
2023/08/20 03:01:36;;;;;;;5.13;2.70;;;13.50;99.90;;;;;;4985593;28;20034;-78
2023/08/20 03:04:01;;;;;;;4.45;2.33;;;13.40;99.90;;;;;;4997584;28;20564;-78
2023/08/20 03:06:27;;;;;;;6.18;2.40;;;13.30;99.90;;;;;;4984742;28;20141;-78
2023/08/20 03:08:52;;;;;;;4.93;2.33;;;13.20;99.90;;;;;;4994614;28;20038;-78
2023/08/20 03:11:18;;;;;;;3.60;2.70;;;13.20;99.90;;;;;;4983888;28;20138;-78
2023/08/20 03:13:44;;;;;;;4.38;2.97;;;13.10;99.90;;;;;;4984993;28;20057;-78
2023/08/20 03:16:10;;;;;;;8.15;3.65;;;13.10;99.90;;;;;;4983294;28;20088;-78
2023/08/20 03:18:36;;;;;;;9.55;5.13;;;13.00;99.90;;;;;;4982893;28;20042;-78
2023/08/20 03:21:02;;;;;;;5.97;3.30;;;13.00;99.90;;;;;;4979321;28;20042;-77
2023/08/20 03:23:29;;;;;;;7.38;3.40;;;13.00;99.90;;;;;;4971249;28;20854;-78
2023/08/20 03:25:58;;;;;;;8.63;3.38;;;13.00;99.90;;;;;;4976012;28;20042;-78
2023/08/20 03:28:24;;;;;;;5.03;3.10;;;13.00;99.90;;;;;;4981884;28;20037;-78
2023/08/20 03:30:49;;;;;;;6.35;3.25;;;13.00;99.90;;;;;;4968345;28;20050;-78
2023/08/20 03:33:16;;;;;;;5.90;3.60;;;13.00;99.90;;;;;;4983636;28;20121;-78
2023/08/20 03:35:43;;;;;;;6.00;4.18;;;13.00;99.90;;;;;;4984642;28;20054;-78
2023/08/20 03:38:08;;;;;;;8.32;4.18;;;12.90;99.90;;;;;;4984694;28;20421;-78
2023/08/20 03:40:34;;;;;;;8.50;3.92;;;12.90;99.90;;;;;;4999943;28;20038;-78
2023/08/20 03:42:59;;;;;;;9.10;3.92;;;12.90;99.90;;;;;;4995307;28;20504;-78
2023/08/20 03:45:26;;;;;;;9.05;4.50;;;12.90;99.90;;;;;;4994411;28;20043;-78
2023/08/20 03:47:51;;;;;;;12.65;5.20;;;12.80;99.90;;;;;;4985170;28;20038;-78
2023/08/20 03:50:17;;;;;;;10.32;5.53;;;12.80;99.90;;;;;;4986652;28;20516;-78
2023/08/20 03:52:43;;;;;;;11.07;5.95;;;12.90;99.90;;;;;;4982551;28;20030;-78
2023/08/20 03:55:08;;;;;;;11.60;5.55;;;12.90;99.90;;;;;;4974132;28;20121;-79
2023/08/20 03:57:35;;;;;;;9.35;5.25;;;12.90;99.90;;;;;;4982622;28;20043;-78
2023/08/20 04:00:00;;;;;;;9.88;6.10;;;13.00;99.90;;;;;;4985760;28;20936;-78
2023/08/20 04:02:26;;;;;;;9.90;5.22;;;13.00;99.90;;;;;;4983261;28;20048;-78
2023/08/20 04:04:51;;;;;;;11.65;5.13;;;12.90;99.90;;;;;;4982851;28;20042;-78
2023/08/20 04:07:18;;;;;;;14.50;5.70;;;13.00;99.90;;;;;;4981235;28;20034;-78
2023/08/20 04:09:43;;;;;;;12.27;6.35;;;13.00;99.90;;;;;;4969652;28;20431;-82
2023/08/20 04:12:09;;;;;;;11.63;6.30;;;13.00;99.90;;;;;;4979675;28;20040;-79
2023/08/20 04:14:35;;;;;;;11.13;5.28;;;13.00;99.90;;;;;;4977214;28;20046;-79
2023/08/20 04:17:00;;;;;;;11.63;5.90;;;13.00;99.90;;;;;;4962515;28;20045;-78
2023/08/20 04:19:26;;;;;;;12.32;5.88;;;13.00;99.90;;;;;;4978094;28;20055;-79
2023/08/20 04:21:52;;;;;;;10.70;6.10;;;13.10;99.90;;;;;;4981611;28;20053;-78
2023/08/20 04:24:17;;;;;;;13.38;6.05;;;13.10;99.90;;;;;;4977980;28;20136;-77
2023/08/20 04:26:43;;;;;;;12.18;5.60;;;13.20;99.90;;;;;;4982642;28;20048;-78
2023/08/20 04:29:09;;;;;;;10.07;6.25;;;13.20;99.90;;;;;;4983820;28;20065;-78
2023/08/20 04:31:35;;;;;;;11.18;5.53;;;13.10;99.90;;;;;;5001434;28;20046;-77
2023/08/20 04:34:01;;;;;;;10.18;6.00;;;13.10;99.90;;;;;;4977470;28;20139;-77
2023/08/20 04:36:26;;;;;;;11.23;5.97;;;13.10;99.90;;;;;;4968862;28;20046;-78
2023/08/20 04:38:52;;;;;;;8.18;5.07;;;13.10;99.90;;;;;;4965584;28;20053;-78
2023/08/20 04:41:17;;;;;;;10.35;5.00;;;13.00;99.90;;;;;;4984463;28;20038;-78
2023/08/20 04:43:43;;;;;;;10.57;5.45;;;13.00;99.90;;;;;;4983628;28;20044;-78
2023/08/20 04:46:09;;;;;;;10.23;5.90;;;13.00;99.90;;;;;;4983796;28;20048;-78
2023/08/20 04:48:34;;;;;;;16.27;6.05;;;13.10;99.90;;;;;;4977106;28;21398;-77
2023/08/20 04:51:00;;;;;;;8.48;5.30;;;13.10;99.90;;;;;;4983797;28;20585;-78
2023/08/20 04:53:26;;;;;;;8.85;5.90;;;13.10;99.90;;;;;;4985223;28;20108;-77
2023/08/20 04:55:51;;;;;;;10.65;6.35;;;13.20;99.90;;;;;;4982940;28;20680;-78
2023/08/20 04:58:17;;;;;;;11.07;6.60;;;13.20;99.90;;;;;;4981840;28;20501;-78
2023/08/20 05:00:43;;;;;;;15.68;7.03;;;13.30;99.90;;;;;;4969516;28;20034;-78
2023/08/20 05:03:09;;;;;;;13.90;7.32;;;13.40;99.90;;;;;;4997941;28;20488;-78
2023/08/20 05:05:34;;;;;;;12.45;7.35;;;13.40;99.90;;;;;;4980281;28;20041;-79
2023/08/20 05:08:00;;;;;;;12.32;6.78;;;13.50;99.90;;;;;;4980649;28;20494;-78
2023/08/20 05:10:26;;;;;;;19.30;8.35;;;13.60;99.90;;;;;;4978378;28;20039;-79
2023/08/20 05:12:51;;;;;;;13.48;8.00;;;13.60;99.90;;;;;;4987885;28;20117;-78
2023/08/20 05:15:17;;;;;;;14.77;7.30;;;13.80;99.90;;;;;;4984401;28;20047;-79
2023/08/20 05:17:43;;;;;;;13.70;7.70;;;13.80;99.90;;;;;;4982889;28;20042;-77
2023/08/20 05:20:09;;;;;;;17.48;9.00;;;13.90;99.90;;;;;;4978264;28;20037;-78
2023/08/20 05:22:35;;;;;;;14.48;9.57;;;13.90;99.90;;;;;;4974912;28;20041;-76
2023/08/20 05:25:00;;;;;;;13.52;8.82;;;14.00;99.90;;;;;;4976958;28;20066;-76
2023/08/20 05:27:26;;;;;;;16.92;8.50;;;14.10;99.90;;;;;;4981301;28;20038;-77
2023/08/20 05:29:52;;;;;;;15.40;9.30;;;14.20;99.90;;;;;;4968367;28;20065;-76
2023/08/20 05:32:17;;;;;;;16.42;8.27;;;14.30;99.90;;;;;;4978843;28;20046;-76
2023/08/20 05:34:43;;;;;;;15.15;9.55;;;14.40;99.90;;;;;;4993118;28;20097;-75
2023/08/20 05:37:09;;;;;;;17.83;9.07;;;14.50;99.90;;;;;;4975300;28;20033;-75
2023/08/20 05:39:42;;;;;;;15.65;9.05;;;14.50;99.90;;;;;;4960013;28;20038;-76
2023/08/20 05:42:08;;;;;;;12.82;8.15;;;14.60;99.90;;;;;;4981042;28;20114;-76
2023/08/20 05:44:33;;;;;;;19.30;8.52;;;14.70;99.90;;;;;;4976900;28;20034;-76
2023/08/20 05:47:00;;;;;;;16.80;8.18;;;14.80;99.90;;;;;;4974674;28;20049;-77
2023/08/20 05:49:26;;;;;;;17.52;9.02;;;14.80;99.90;;;;;;4973822;28;20136;-77
2023/08/20 05:51:52;;;;;;;17.23;8.10;;;14.80;99.90;;;;;;4979665;28;20042;-76
2023/08/20 05:54:18;;;;;;;12.82;7.75;;;14.90;99.90;;;;;;4978312;28;20112;-77
2023/08/20 05:56:43;;;;;;;14.27;7.85;;;15.00;99.90;;;;;;4976712;28;20038;-75
2023/08/20 05:59:09;;;;;;;14.68;7.82;;;15.10;99.90;;;;;;4969870;28;20491;-77
2023/08/20 06:01:35;;;;;;;13.70;7.78;;;15.30;99.90;;;;;;4978413;28;20108;-77
2023/08/20 06:04:01;;;;;;;13.43;7.80;;;15.40;99.90;;;;;;4974034;28;20129;-77
2023/08/20 06:06:27;;;;;;;14.35;8.05;;;15.60;99.90;;;;;;4990595;28;20772;-77
2023/08/20 06:08:52;;;;;;;11.93;7.03;;;15.70;99.90;;;;;;4990801;28;20061;-76
2023/08/20 06:11:19;;;;;;;11.52;6.50;;;15.90;99.90;;;;;;5002659;28;20138;-78
2023/08/20 06:13:45;;;;;;;9.80;6.43;;;16.00;99.90;;;;;;4986520;28;20038;-76
2023/08/20 06:16:10;;;;;;;8.88;5.90;;;16.20;99.90;;;;;;4982061;28;20401;-77
2023/08/20 06:18:36;;;;;;;9.68;5.63;;;16.30;99.90;;;;;;4985323;28;20057;-78
2023/08/20 06:21:03;;;;;;;7.53;5.10;;;16.50;99.90;;;;;;4979938;28;20046;-78
2023/08/20 06:23:28;;;;;;;7.53;4.60;;;16.70;99.90;;;;;;4961472;28;20039;-77
2023/08/20 06:25:54;;;;;;;8.15;4.38;;;16.80;99.90;;;;;;4962945;28;20417;-77
2023/08/20 06:28:20;;;;;;;9.50;4.45;;;16.90;99.90;;;;;;4977709;28;20062;-76
2023/08/20 06:30:45;;;;;;;13.02;4.45;;;17.00;99.90;;;;;;4977144;28;20065;-74
2023/08/20 06:33:11;;;;;;;6.68;3.95;;;17.00;99.90;;;;;;4987417;28;20045;-78
2023/08/20 06:35:38;;;;;;;6.47;3.72;;;17.10;99.90;;;;;;4987508;28;20132;-76
2023/08/20 06:38:03;;;;;;;6.97;3.90;;;17.10;99.90;;;;;;4985365;28;20050;-75
2023/08/20 06:40:32;;;;;;;7.05;3.40;;;17.10;99.90;;;;;;4984566;28;20118;-75
2023/08/20 06:42:57;;;;;;;8.52;3.40;;;17.10;99.90;;;;;;4967015;28;20034;-76
2023/08/20 06:45:23;;;;;;;6.15;3.00;;;17.10;99.90;;;;;;4988945;28;20042;-75
2023/08/20 06:47:48;;;;;;;5.72;3.20;;;17.10;99.90;;;;;;4987839;28;20046;-75
2023/08/20 06:50:14;;;;;;;6.72;2.97;;;17.10;99.90;;;;;;4969331;28;20489;-77
2023/08/20 06:52:40;;;;;;;6.22;3.42;;;17.20;99.90;;;;;;4976594;28;20034;-76
2023/08/20 06:55:06;;;;;;;8.23;3.20;;;17.10;99.90;;;;;;4993545;28;20074;-77
2023/08/20 06:57:31;;;;;;;8.10;2.90;;;17.20;99.90;;;;;;4983839;28;20042;-75
2023/08/20 06:59:57;;;;;;;5.70;2.83;;;17.20;99.90;;;;;;4979745;28;20035;-75
2023/08/20 07:02:23;;;;;;;9.75;2.85;;;17.30;99.90;;;;;;4986119;28;20042;-74
2023/08/20 07:04:48;;;;;;;9.60;3.25;;;17.40;99.90;;;;;;4988540;28;20057;-74
2023/08/20 07:07:14;;;;;;;4.93;2.83;;;17.50;99.90;;;;;;4991180;28;20065;-75
2023/08/20 07:09:40;;;;;;;9.32;2.88;;;17.50;99.90;;;;;;4971839;28;20078;-76
2023/08/20 07:12:06;;;;;;;8.00;2.50;;;17.60;99.90;;;;;;4975835;28;20537;-75
2023/08/20 07:14:32;;;;;;;8.00;3.05;;;17.70;99.90;;;;;;4980507;28;20030;-76
2023/08/20 07:16:59;;;;;;;5.68;2.80;;;17.80;99.90;;;;;;4984348;28;20092;-76
2023/08/20 07:19:25;;;;;;;7.63;3.15;;;17.80;99.90;;;;;;4978757;28;20049;-77
2023/08/20 07:21:51;;;;;;;8.35;2.90;;;17.80;99.90;;;;;;4976370;28;20367;-76
2023/08/20 07:24:16;;;;;;;8.13;3.28;;;17.90;99.90;;;;;;4974680;28;20050;-77
2023/08/20 07:26:42;;;;;;;11.48;3.22;;;17.90;99.90;;;;;;4963698;28;20077;-77
2023/08/20 07:29:07;;;;;;;8.98;2.88;;;18.00;99.90;;;;;;4978733;28;20149;-77
2023/08/20 07:31:33;;;;;;;8.63;3.25;;;18.10;99.90;;;;;;4967929;28;20053;-77
2023/08/20 07:34:00;;;;;;;8.82;3.17;;;18.20;99.90;;;;;;4978661;28;20038;-77
2023/08/20 07:36:26;;;;;;;11.43;3.85;;;18.30;99.90;;;;;;4976945;28;20033;-77
2023/08/20 07:38:53;;;;;;;5.88;2.80;;;18.40;99.90;;;;;;4979428;28;20045;-77
2023/08/20 07:41:20;;;;;;;7.97;2.63;;;18.50;99.90;;;;;;4979022;28;20038;-77
2023/08/20 07:43:46;;;;;;;9.73;3.33;;;18.50;99.90;;;;;;4984282;28;20046;-76
2023/08/20 07:46:12;;;;;;;10.75;2.97;;;18.60;99.90;;;;;;4963643;28;20165;-77
2023/08/20 07:48:38;;;;;;;6.80;2.40;;;18.60;99.90;;;;;;4994929;28;20050;-77
2023/08/20 07:51:03;;;;;;;7.57;2.88;;;18.70;98.30;;;;;;4962691;28;20662;-77
2023/08/20 07:53:30;;;;;;;7.30;2.50;;;18.80;94.50;;;;;;4977220;28;20037;-77
2023/08/20 07:55:58;;;;;;;8.20;2.65;;;18.80;89.00;;;;;;4976084;28;20044;-77
2023/08/20 07:58:24;;;;;;;6.63;2.20;;;18.90;63.60;;;;;;4978405;28;20047;-79
2023/08/20 08:00:49;;;;;;;5.28;2.08;;;19.00;47.30;;;;;;4962224;28;20079;-77
2023/08/20 08:03:16;;;;;;;5.00;1.92;;;19.20;28.50;;;;;;4965406;28;20459;-77
2023/08/20 08:05:49;;;;;;;7.35;2.00;;;19.30;29.50;;;;;;4972819;28;20038;-77
2023/08/20 08:08:18;;;;;;;5.50;1.83;;;19.40;17.20;;;;;;4963852;28;20053;-77
2023/08/20 08:10:45;;;;;;;4.80;1.90;;;19.50;1.00;;;;;;4977586;28;20058;-77
2023/08/20 08:13:16;;;;;;;7.00;3.22;;;19.60;1.00;;;;;;4972584;28;20092;-77
2023/08/20 08:15:41;;;;;;;6.97;2.00;;;19.70;1.00;;;;;;4975172;28;20104;-77
2023/08/20 08:18:08;;;;;;;8.05;1.88;;;19.80;1.00;;;;;;4974745;28;21184;-77
2023/08/20 08:20:34;;;;;;;5.95;2.30;;;19.90;1.00;;;;;;4975597;28;20968;-77
2023/08/20 08:23:00;;;;;;;4.40;1.55;;;20.10;1.00;;;;;;4985838;28;20097;-77
2023/08/20 08:25:26;;;;;;;8.95;1.90;;;20.30;1.00;;;;;;4960571;28;20603;-77
2023/08/20 08:27:52;;;;;;;7.15;1.90;;;20.40;99.90;;;;;;4962014;28;20129;-77
2023/08/20 08:30:18;;;;;;;5.20;1.88;;;20.50;99.90;;;;;;4976188;28;20107;-76
2023/08/20 08:32:43;;;;;;;4.25;1.25;;;20.50;99.90;;;;;;4977187;28;20039;-77
2023/08/20 08:35:09;;;;;;;8.13;1.30;;;20.50;99.90;;;;;;4994071;28;20489;-76
2023/08/20 08:37:35;;;;;;;6.60;1.48;;;20.70;99.90;;;;;;4990580;28;20138;-76
2023/08/20 08:40:01;;;;;;;6.13;1.10;;;20.80;99.90;;;;;;4978864;28;20038;-76
2023/08/20 08:42:26;;;;;;;6.90;1.38;;;20.90;99.90;;;;;;4979096;28;20042;-77
2023/08/20 08:44:52;;;;;;;6.55;1.10;;;21.20;26.30;;;;;;4972480;28;20053;-76
2023/08/20 08:47:22;;;;;;;6.93;1.60;;;21.30;1.00;;;;;;4979298;28;20042;-76
2023/08/20 08:49:48;;;;;;;4.47;1.60;;;21.40;1.00;;;;;;4978736;28;20061;-76
2023/08/20 08:52:14;;;;;;;6.68;1.40;;;21.50;1.00;;;;;;4995686;28;20047;-76
2023/08/20 08:54:40;;;;;;;3.22;1.08;;;21.70;99.90;;;;;;4977865;28;20042;-77
2023/08/20 08:57:05;;;;;;;4.82;1.40;;;21.90;1.00;;;;;;4978660;28;20046;-77
2023/08/20 08:59:32;;;;;;;6.13;1.33;;;22.10;99.90;;;;;;4960708;28;20046;-77
2023/08/20 09:01:57;;;;;;;6.95;0.95;;;22.30;99.90;;;;;;4987446;28;20052;-77
2023/08/20 09:04:23;;;;;;;3.58;0.80;;;22.40;99.90;;;;;;4972764;28;20034;-76
2023/08/20 09:06:51;;;;;;;4.03;0.90;;;22.70;99.90;;;;;;4986896;28;20034;-77
2023/08/20 09:09:18;;;;;;;5.72;1.23;;;23.00;99.90;;;;;;4967252;28;20057;-77
2023/08/20 09:11:44;;;;;;;3.25;0.80;;;23.90;99.90;;;;;;4970012;28;20077;-77
2023/08/20 09:14:30;;;;;;;6.63;1.15;;;25.20;1.00;;;;;;4991815;28;20039;-77
2023/08/20 09:17:01;;;;;;;5.93;0.95;;;26.00;1.00;;;;;;4989223;28;20046;-77
2023/08/20 09:19:35;;;;;;;6.95;1.45;;;26.90;1.00;;;;;;4987895;28;20454;-78
2023/08/20 09:22:01;;;;;;;4.82;1.10;;;27.50;1.00;;;;;;4985532;28;20042;-77
2023/08/20 09:24:33;;;;;;;3.03;0.80;;;28.00;1.00;;;;;;5000344;28;20038;-77
2023/08/20 09:26:59;;;;;;;2.60;0.90;;;28.50;1.00;;;;;;4974556;28;20656;-75
2023/08/20 09:29:25;;;;;;;2.22;0.70;;;28.80;1.00;;;;;;4993330;28;20062;-74
2023/08/20 09:32:01;;;;;;;4.78;0.93;;;28.80;1.00;;;;;;5000305;28;20479;-77
2023/08/20 09:34:37;;;;;;;3.28;0.70;;;29.00;1.00;;;;;;4982263;28;20042;-77
2023/08/20 09:37:03;;;;;;;3.17;1.02;;;28.90;1.00;;;;;;5003086;28;20093;-73
2023/08/20 09:39:29;;;;;;;2.78;0.70;;;29.20;1.00;;;;;;4989043;28;20050;-75
2023/08/20 09:41:57;;;;;;;4.82;1.15;;;29.00;1.00;;;;;;4993340;28;20049;-75
2023/08/20 09:44:23;;;;;;;4.38;0.93;;;29.20;1.00;;;;;;4976897;28;20625;-75
2023/08/20 09:46:50;;;;;;;2.90;0.88;;;29.30;1.00;;;;;;4977590;28;20415;-74
2023/08/20 09:49:18;;;;;;;3.85;1.02;;;29.80;1.00;;;;;;4987468;28;20046;-75
2023/08/20 09:51:48;;;;;;;4.68;1.10;;;30.20;1.00;;;;;;4968460;28;20050;-75
2023/08/20 09:54:26;;;;;;;4.40;0.85;;;30.50;1.00;;;;;;4984195;28;20416;-74
2023/08/20 09:56:55;;;;;;;2.63;0.70;;;31.20;1.00;;;;;;4983488;28;20042;-75
2023/08/20 09:59:21;;;;;;;5.32;1.00;;;31.70;1.00;;;;;;5002286;28;20049;-75
2023/08/20 10:01:50;;;;;;;4.68;1.00;;;31.60;1.00;;;;;;4984206;28;20039;-75
2023/08/20 10:04:18;;;;;;;1.48;0.50;;;31.70;1.00;;;;;;4992548;28;20782;-75
2023/08/20 10:06:44;;;;;;;1.88;0.70;;;31.70;1.00;;;;;;4984776;28;20504;-75
2023/08/20 10:09:10;;;;;;;1.70;0.70;;;31.60;1.00;;;;;;4983777;28;20037;-74
2023/08/20 10:11:37;;;;;;;2.75;0.60;;;31.50;1.00;;;;;;4985740;28;20042;-75
2023/08/20 10:14:03;;;;;;;4.38;0.70;;;31.40;1.00;;;;;;5000984;28;20068;-75
2023/08/20 10:16:28;;;;;;;2.90;0.88;;;30.80;1.00;;;;;;4983648;28;20344;-75
2023/08/20 10:18:59;;;;;;;3.30;0.80;;;31.10;1.00;;;;;;4983817;28;20046;-75
2023/08/20 10:21:26;;;;;;;3.13;0.50;;;31.50;1.00;;;;;;4992622;28;20570;-75
2023/08/20 10:23:53;;;;;;;2.50;0.40;;;31.90;1.00;;;;;;5000999;28;20073;-75
2023/08/20 10:26:21;;;;;;;3.55;0.70;;;32.40;1.00;;;;;;4997751;28;20638;-75
2023/08/20 10:28:47;;;;;;;3.13;0.63;;;32.50;1.00;;;;;;4942333;28;1140451;-75
2023/08/20 10:31:15;;;;;;;2.28;0.50;;;32.70;1.00;;;;;;4986002;28;20038;-76
2023/08/20 10:33:47;;;;;;;3.03;1.00;;;32.90;1.00;;;;;;4982660;28;20046;-75
2023/08/20 10:36:18;;;;;;;10.05;1.60;;;32.70;1.00;;;;;;4969626;28;20050;-76
2023/08/20 10:38:47;;;;;;;3.10;0.75;;;32.90;1.00;;;;;;4981157;28;20046;-76
2023/08/20 10:41:16;;;;;;;9.93;1.20;;;32.90;1.00;;;;;;4980069;28;20144;-77
2023/08/20 10:43:49;;;;;;;6.50;1.23;;;33.40;1.00;;;;;;4980514;28;20065;-77
2023/08/20 10:46:31;;;;;;;2.95;1.00;;;34.40;1.00;;;;;;4966047;28;20046;-77
2023/08/20 10:49:02;;;;;;;3.75;0.90;;;35.30;1.00;;;;;;4985520;28;20034;-76
2023/08/20 10:51:36;;;;;;;3.55;0.80;;;35.50;1.00;;;;;;4986157;28;20050;-77
2023/08/20 10:54:04;;;;;;;3.05;0.75;;;34.60;1.00;;;;;;4977515;28;20054;-76
2023/08/20 10:56:57;;;;;;;5.15;0.80;;;34.90;1.00;;;;;;4983735;28;20051;-76
2023/08/20 10:59:26;;;;;;;4.43;0.75;;;34.90;1.00;;;;;;4998110;28;20038;-76
2023/08/20 11:01:54;;;;;;;6.15;0.82;;;34.50;1.00;;;;;;4973885;28;20596;-76
2023/08/20 11:04:26;;;;;;;2.80;0.50;;;34.10;1.00;;;;;;4985217;28;20855;-76
2023/08/20 11:06:57;;;;;;;4.35;0.98;;;34.00;1.00;;;;;;4968879;28;20505;-77
2023/08/20 11:09:24;;;;;;;1.33;0.47;;;33.70;1.00;;;;;;4971873;28;20046;-76
2023/08/20 11:11:50;;;;;;;19.15;2.47;;;33.30;1.00;;;;;;4965135;28;20049;-78
2023/08/20 11:14:19;;;;;;;1.30;0.40;;;33.90;1.00;;;;;;4969188;28;20408;-76
2023/08/20 11:16:46;;;;;;;0.75;0.25;;;33.90;1.00;;;;;;5001471;28;20057;-77
2023/08/20 11:19:12;;;;;;;3.72;0.65;;;34.50;1.00;;;;;;4967262;28;20104;-77
2023/08/20 11:21:39;;;;;;;3.85;0.50;;;34.90;1.00;;;;;;4973945;28;20114;-76
2023/08/20 11:24:07;;;;;;;1.20;0.47;;;35.20;1.00;;;;;;4968428;28;20034;-77
2023/08/20 11:26:36;;;;;;;2.58;0.68;;;35.20;1.00;;;;;;5001469;28;20701;-77
2023/08/20 11:29:10;;;;;;;1.30;0.60;;;36.00;1.00;;;;;;4989109;28;21373;-77
2023/08/20 11:31:37;;;;;;;3.05;0.77;;;36.60;1.00;;;;;;4986092;28;20050;-78
2023/08/20 11:34:03;;;;;;;1.98;0.50;;;36.50;1.00;;;;;;4975864;28;20672;-77
2023/08/20 11:36:29;;;;;;;2.15;0.40;;;36.10;1.00;;;;;;4984593;28;20535;-78
2023/08/20 11:38:55;;;;;;;2.30;0.43;;;35.80;1.00;;;;;;4992297;28;20039;-77
2023/08/20 11:41:22;;;;;;;2.53;0.77;;;35.30;1.00;;;;;;4977012;28;20034;-77
2023/08/20 11:43:49;;;;;;;1.63;0.38;;;34.90;1.00;;;;;;4978036;28;20116;-77
2023/08/20 11:46:19;;;;;;;2.10;0.50;;;35.20;1.00;;;;;;4975943;28;20053;-76
2023/08/20 11:49:03;;;;;;;7.50;1.08;;;35.20;1.00;;;;;;4961828;28;20396;-76
2023/08/20 11:51:30;;;;;;;1.98;0.43;;;35.80;1.00;;;;;;4982289;28;20061;-77
2023/08/20 11:53:57;;;;;;;2.28;0.40;;;36.10;1.00;;;;;;4974703;28;20471;-77
2023/08/20 11:56:23;;;;;;;1.05;0.32;;;36.20;1.00;;;;;;4974520;28;21804;-77
2023/08/20 11:58:52;;;;;;;2.38;0.30;;;36.20;1.00;;;;;;4991940;28;20125;-76
2023/08/20 12:01:21;;;;;;;2.00;0.40;;;36.20;1.00;;;;;;4974148;28;20850;-77
2023/08/20 12:03:46;;;;;;;7.45;0.30;;;35.80;1.00;;;;;;4975740;28;20065;-78
2023/08/20 12:06:20;;;;;;;1.77;0.30;;;35.90;1.00;;;;;;4973804;28;20576;-77
2023/08/20 12:08:46;;;;;;;2.00;0.35;;;35.60;1.00;;;;;;4975390;28;20183;-77
2023/08/20 12:11:12;;;;;;;2.00;0.50;;;35.40;1.00;;;;;;4975273;28;20065;-77
2023/08/20 12:13:38;;;;;;;3.45;0.73;;;35.80;1.00;;;;;;4972411;28;20050;-77
2023/08/20 12:16:04;;;;;;;3.28;0.50;;;36.10;1.00;;;;;;4972391;28;20512;-78
2023/08/20 12:18:30;;;;;;;1.92;0.40;;;36.20;1.00;;;;;;4963459;28;20050;-77
2023/08/20 12:20:56;;;;;;;1.67;0.40;;;36.50;1.00;;;;;;4976128;28;20113;-78
2023/08/20 12:23:22;;;;;;;0.77;0.30;;;36.20;1.00;;;;;;4976094;28;20030;-77
2023/08/20 12:25:51;;;;;;;3.05;0.52;;;34.70;1.00;;;;;;4988773;28;20206;-77
2023/08/20 12:28:17;;;;;;;2.22;0.52;;;33.60;1.00;;;;;;4982811;28;20137;-77
2023/08/20 12:30:43;;;;;;;1.33;0.40;;;34.10;1.00;;;;;;4971504;28;20055;-77
2023/08/20 12:33:10;;;;;;;1.75;0.40;;;34.90;1.00;;;;;;4969268;28;20046;-77
2023/08/20 12:35:36;;;;;;;1.60;0.35;;;35.20;1.00;;;;;;4991596;28;20042;-78
2023/08/20 12:38:02;;;;;;;1.45;0.43;;;35.80;1.00;;;;;;4975959;28;20046;-76
2023/08/20 12:40:28;;;;;;;1.48;0.30;;;35.60;1.00;;;;;;4984449;28;20046;-78
2023/08/20 12:42:54;;;;;;;1.02;0.43;;;35.80;1.00;;;;;;4984714;28;20098;-77
2023/08/20 12:45:20;;;;;;;2.88;0.82;;;36.10;1.00;;;;;;4981398;28;20501;-77
2023/08/20 12:47:46;;;;;;;1.23;0.50;;;36.10;1.00;;;;;;4999073;28;20110;-77